Tropical Cyclones
[Index]
Main Index Home Page Stock Weather Photos Extreme Storms Discussion Storm News and Storm Chasing Reports Tropical Cyclones / Hurricanes / Typhoons Weather Data and Links Wild Fires / Bushfires Weather Observation Techniques Weather Picture Catalogue Tornado Pictures and Reports Stock Video Footage and DVDs for sale
Season 2004-2005 Tropical Cyclone BENTO Track Map
Season 2004-2005 Summaries (Operational Data): [AU] [SIO] [SPAC] [SH]
<<- Previous TC | 2004-2005 Season | Next TC ->>

click for intensity scale information  Lat/long Grid: Show Hide

 Date Labels: Show Hide

Operational Tropical Cyclone Data : JTWC Advisories

Name: BENTO
Number: 0504

20 Nov 2004 06:00 UTC to 30 Nov 2004 12:00 UTC

    date/time    lat    long     hPa   cat  kts
2004-11-20 06    7.3    77.6    1003         25          
2004-11-20 12    7.9    77.7    1001         25          
2004-11-20 18    8.0    77.6    1001         25          
2004-11-21 00    8.0    77.9    1000         30          
2004-11-21 06    8.3    78.7     997         30          
2004-11-21 12    8.3    78.6     993    1    40          
2004-11-21 18    8.3    78.8     992    1    40          
2004-11-22 00    8.9    78.0     986    2    50          
2004-11-22 06    8.9    77.9     980    2    55          
2004-11-22 12    8.8    77.1     970    3    65          
2004-11-22 18    8.4    76.7     950    3    85          
2004-11-23 00    8.3    76.3     925    4   105          
2004-11-23 06    8.4    75.8     920    5   110          
2004-11-23 12    8.5    75.2     905    5   120          
2004-11-23 18    8.5    74.7     905    5   120          
2004-11-24 00    9.0    74.3     905    5   120          
2004-11-24 06    9.2    73.8     920    5   110          
2004-11-24 12    9.7    73.6     920    5   110          
2004-11-24 18    9.7    73.3     925    4   105          
2004-11-25 00   10.1    73.3     940    4    95          
2004-11-25 06   10.7    73.5     945    3    85          
2004-11-25 12   11.4    73.4     960    3    70          
2004-11-25 18   12.1    73.8     970    3    70          
2004-11-26 00   12.9    74.0     978    2    55          
2004-11-26 06   13.1    74.2     978    2    60          
2004-11-26 12   13.4    74.3     980    2    55          
2004-11-26 18   14.0    74.5     980    2    55          
2004-11-27 00   14.3    74.6     980    2    55          
2004-11-27 06   14.8    75.7     980    2    55          
2004-11-27 12   15.5    76.0     985    2    50          
2004-11-27 18   15.8    76.7     985    2    50          
2004-11-28 00   16.3    76.5     985    2    50          
2004-11-28 06   16.0    77.3     986    2    50          
2004-11-28 12   16.1    77.0     987    2    50          
2004-11-28 18   16.0    76.8     990    1    40          
2004-11-29 00   16.3    76.3     990    1    40          
2004-11-29 06   16.5    75.8     995    1    35          
2004-11-29 12   16.6    75.0     997         30          
2004-11-29 18   16.7    74.0     999         30          
2004-11-30 00   16.9    73.5     999         30          
2004-11-30 06   17.3    72.6    1002         30          
2004-11-30 12   17.6    71.3    1004         25          
Winds are 10-min average.

Tropical cyclone tracks developed by Michael Bath using operational warnings and advisories and Google Maps.


[Australian Severe Weather index] [Copyright Notice] [Email Contacts] [Search This Site] [Privacy Policy]
Document: tropical_cyclone_bento.htm Updated: 28 May 2013